Delmont, New Jersey
Current Conditions -  °F | °C
As of 8:54 AM on Sunday 23 Nov 2014 (Local Time) from KMIV Reporting Station
Clear Clear  
Wind Chill: 42°   Ceiling: Unl
Heat Index: 44°   Visibility: 10mi
Dew Point: 27°   Wind: 5mph
Humidity: 51%   Direction: 170°S
Pressure: 30.25"   Gusts: NA
Location:  39.21°N, 74.95°W
Report Text: KMIV 231354Z AUTO 17004KT 10SM CLR 07/M03 A3025 RMK AO2 SLP243 T00671028
Loading
Personal Weather Stations






























Interactive Weather Map New forecast layout! Learn more

10-Day Weather Forecast

Advertisements
Track Severe Weather on mobile